Steamboat Springs, CO

1:02 AM MDT on October 24, 2014 (GMT -0600)
APRSWXNET Steamboat Springs CO US | Change Station
CLOSE
Current Station
Personal Weather Station
Location: Steamboat Springs, CO
Elevation: 6932 ft
Nearby Weather Stations

Elev 6932 ft 40.47 °N, 106.82 °W | Updated 34 minutes ago

Clear
Clear
38 °F
Feels Like 38 °F
N
0
Wind Variable Wind from SE
Gusts 0.0 mph

Today
High -- | Low -- °F
--% Chance of Precip.
Yesterday
High -- | Low -- °F
Precip. -- in
7:28 AM 6:14 PM
New Moon, 0% visible
Pressure 30.29 in
Visibility 10.0 miles
Clouds Clear
Windchill 38 °F
Dew Point 32 °F
Humidity 80%
Rainfall 0.00 in
Snow Depth Not available.
UV 0 out of 12
Pollen 3.00 out of 12
Air Quality Not available.
Flu Activity Sporadic
METAR KSBS 240655Z AUTO 00000KT 10SM CLR 03/00 A3029 RMK AO1 T00341004

More Conditions Fewer Conditions

Pressure 30.29 in
Visibility 10.0 miles
Clouds Clear
Windchill 38 °F
Dew Point 32 °F
Humidity 80%
Rainfall 0.00 in
Snow Depth Not available.
UV 0 out of 12
Pollen 3.00 out of 12
Air Quality Not available.
Flu Activity Sporadic
METAR KSBS 240655Z AUTO 00000KT 10SM CLR 03/00 A3029 RMK AO1 T00341004

More Conditions Fewer Conditions

10-Day Weather Forecast

Almanac

Astronomy

Oct. 24, 2014 Rise Set
Actual Time 7:28 AM MDT 6:14 PM MDT
Civil Twilight 7:00 AM MDT 6:42 PM MDT
Nautical Twilight 6:28 AM MDT 7:13 PM MDT
Astronomical Twilight 5:56 AM MDT 7:45 PM MDT
Moon 8:10 AM MDT 6:56 PM MDT
Length of Visible Light 11h 41m
Length of Day
10h 46m
Tomorrow will be 2m 29s shorter.
New Moon, 0% of the Moon is Illuminated
Today
New Moon
Oct 30
First Quarter
Nov 6
Full
Nov 14
Last Quarter
Nov 22
New

Today's Extremes

State Highs State Lows

Community

WunderPhotos

Upload Photos

1,764,510 photos uploaded!

WunderBlogs® & News

Nearby

Snow Depth

Station Depth Elevation
Dry Lake 0 in 8400 ft
Rabbit Ears 0 in 9400 ft
Columbine 0 in 9160 ft
Buffalo Park 0 in 9240 ft
Crosho 0 in 9100 ft

Earthquake Activity

City Distance Mag. Time & Date
No recent earthquake activity has been reported nearby.
Minimum magnitude displayed is 2.5.

Coastal Water Temperatures

Place Temperature
No Stations Reporting

Nearby Weather Stations